Time;durP1;ratioP1;P1;durP2;ratioP2;P2;SDS_P1;SDS_P2;PMS_P1;PMS_P2;Temp;Humidity;BMP_temperature;BMP_pressure;BME280_temperature;BME280_humidity;BME280_pressure;Samples;Min_cycle;Max_cycle;Signal;HPM_P1;HPM_P2
2022/01/25 00:08:23;;;;;;;60.20;34.78;;;;;;;;;;5074423;28;20407;-91
2022/01/25 00:26:37;;;;;;;57.63;33.33;;;;;;;;;;5079794;28;20043;-91
2022/01/25 00:29:15;;;;;;;62.53;36.15;;;;;;;;;;5056975;28;20452;-91
2022/01/25 00:31:43;;;;;;;61.67;34.78;;;;;;;;;;5073587;28;20040;-92
2022/01/25 00:34:09;;;;;;;58.45;34.83;;;;;;;;;;5058697;28;20040;-91
2022/01/25 00:36:36;;;;;;;59.92;34.67;;;;;;;;;;5059787;28;20036;-92
2022/01/25 00:39:03;;;;;;;63.80;36.03;;;;;;;;;;5089352;28;20307;-91
2022/01/25 00:41:29;;;;;;;63.42;35.22;;;;;;;;;;5107229;28;20468;-91
2022/01/25 00:43:59;;;;;;;56.65;34.42;;;;;;;;;;5077593;28;20079;-91
2022/01/25 00:46:25;;;;;;;60.10;34.45;;;;;;;;;;5086877;28;20048;-91
2022/01/25 00:48:55;;;;;;;62.05;35.63;;;;;;;;;;5073276;28;20098;-91
2022/01/25 00:54:01;;;;;;;66.07;38.17;;;;;;;;;;5096507;28;20449;-91
2022/01/25 00:56:35;;;;;;;59.38;34.30;;;;;;;;;;5088566;28;20036;-91
2022/01/25 00:59:02;;;;;;;60.92;33.70;;;;;;;;;;5089750;28;20036;-92
2022/01/25 01:01:28;;;;;;;60.88;35.90;;;;;;;;;;5106501;28;20043;-92
2022/01/25 01:03:55;;;;;;;61.28;34.38;;;;;;;;;;5077250;28;20563;-92
2022/01/25 01:06:22;;;;;;;63.80;35.42;;;;;;;;;;5105811;28;20048;-92
2022/01/25 01:08:48;;;;;;;60.78;33.65;;;;;;;;;;5072679;28;20100;-92
2022/01/25 01:11:21;;;;;;;62.83;35.20;;;;;;;;;;5089871;28;20118;-90
2022/01/25 01:43:26;;;;;;;71.68;38.83;;;;;;;;;;5120928;27;20051;-92
2022/01/25 01:48:57;;;;;;;60.22;35.17;;;;;;;;;;5071103;28;20400;-92
2022/01/25 01:51:33;;;;;;;61.95;36.67;;;;;;;;;;5054594;28;20131;-91
2022/01/25 01:54:01;;;;;;;61.30;34.85;;;;;;;;;;5088019;28;20036;-92
2022/01/25 01:56:33;;;;;;;65.97;36.92;;;;;;;;;;5089344;28;20082;-92
2022/01/25 01:59:01;;;;;;;62.42;37.00;;;;;;;;;;5106514;28;20047;-92
2022/01/25 02:01:28;;;;;;;68.28;36.22;;;;;;;;;;5124536;27;20036;-93
2022/01/25 02:03:55;;;;;;;65.55;38.35;;;;;;;;;;5107655;28;20467;-92
2022/01/25 02:06:21;;;;;;;65.78;38.13;;;;;;;;;;5105920;28;20047;-92
2022/01/25 02:08:47;;;;;;;67.13;37.85;;;;;;;;;;5105957;28;20039;-92
2022/01/25 02:11:14;;;;;;;70.88;38.90;;;;;;;;;;5106394;28;20036;-92
2022/01/25 02:13:42;;;;;;;71.40;39.55;;;;;;;;;;5106217;28;20039;-92
2022/01/25 02:16:16;;;;;;;72.38;39.72;;;;;;;;;;5089493;28;20671;-93
2022/01/25 02:24:11;;;;;;;65.57;37.15;;;;;;;;;;5122163;28;20047;-93
2022/01/25 02:26:37;;;;;;;66.30;38.03;;;;;;;;;;5089469;28;20247;-93
2022/01/25 02:29:04;;;;;;;72.93;37.58;;;;;;;;;;5075747;28;20036;-92
2022/01/25 02:31:30;;;;;;;71.47;38.85;;;;;;;;;;5088887;28;20040;-92
2022/01/25 02:33:56;;;;;;;72.07;40.50;;;;;;;;;;5104429;28;20124;-92
2022/01/25 02:36:26;;;;;;;65.70;39.40;;;;;;;;;;5088458;28;20047;-92
2022/01/25 02:38:52;;;;;;;66.90;38.65;;;;;;;;;;5088599;28;20119;-92
2022/01/25 02:41:18;;;;;;;69.80;38.92;;;;;;;;;;5088743;28;20514;-90
2022/01/25 02:43:46;;;;;;;70.20;39.08;;;;;;;;;;5088934;28;20152;-92
2022/01/25 02:48:51;;;;;;;68.07;38.63;;;;;;;;;;5123101;28;20138;-92
2022/01/25 02:51:18;;;;;;;69.93;39.55;;;;;;;;;;5080736;28;20037;-92
2022/01/25 02:53:44;;;;;;;72.68;40.88;;;;;;;;;;5086343;28;20068;-92
2022/01/25 02:56:11;;;;;;;72.85;40.15;;;;;;;;;;5088533;28;20040;-91
2022/01/25 02:58:37;;;;;;;67.32;39.17;;;;;;;;;;5105887;28;20043;-92
2022/01/25 03:01:03;;;;;;;67.53;38.88;;;;;;;;;;5105584;28;20093;-92
2022/01/25 03:03:29;;;;;;;69.72;39.13;;;;;;;;;;5106000;28;20038;-92
2022/01/25 03:05:55;;;;;;;70.70;38.20;;;;;;;;;;5122450;28;20036;-92
2022/01/25 03:08:21;;;;;;;70.30;38.97;;;;;;;;;;5108944;28;20109;-93
2022/01/25 03:10:48;;;;;;;63.45;36.42;;;;;;;;;;5110665;27;20090;-93
2022/01/25 03:13:19;;;;;;;65.35;37.70;;;;;;;;;;5110157;28;20071;-92
2022/01/25 03:18:38;;;;;;;70.30;39.58;;;;;;;;;;5127530;27;20048;-93
2022/01/25 03:23:41;;;;;;;72.60;40.15;;;;;;;;;;5127293;27;20044;-93
2022/01/25 03:26:08;;;;;;;68.90;39.95;;;;;;;;;;5110149;28;20040;-92
2022/01/25 03:28:34;;;;;;;69.07;39.28;;;;;;;;;;5092423;28;20423;-92
2022/01/25 03:31:00;;;;;;;70.93;38.70;;;;;;;;;;5126159;27;20043;-92
2022/01/25 03:33:27;;;;;;;67.85;37.60;;;;;;;;;;5108622;28;20127;-91
2022/01/25 03:35:53;;;;;;;65.30;39.53;;;;;;;;;;5108750;28;20085;-92
2022/01/25 03:38:19;;;;;;;70.10;38.97;;;;;;;;;;5126444;27;20100;-92
2022/01/25 03:40:46;;;;;;;69.47;39.03;;;;;;;;;;5108560;28;20040;-91
2022/01/25 03:43:14;;;;;;;64.90;37.70;;;;;;;;;;5091996;28;20039;-92
2022/01/25 03:45:43;;;;;;;72.32;39.55;;;;;;;;;;5091342;28;20043;-92
2022/01/25 03:50:43;;;;;;;68.30;38.05;;;;;;;;;;5118880;27;20055;-92
2022/01/25 03:53:10;;;;;;;78.80;41.65;;;;;;;;;;5091166;28;20039;-92
2022/01/25 03:55:37;;;;;;;73.85;40.15;;;;;;;;;;5054108;28;20044;-92
2022/01/25 03:58:03;;;;;;;70.82;39.28;;;;;;;;;;5062346;28;20044;-92
2022/01/25 04:00:29;;;;;;;68.93;39.95;;;;;;;;;;5108308;28;20395;-91
2022/01/25 04:03:06;;;;;;;65.65;38.33;;;;;;;;;;5074034;28;20050;-91
2022/01/25 04:08:02;;;;;;;71.72;38.67;;;;;;;;;;5064410;28;20036;-92
2022/01/25 04:10:28;;;;;;;68.20;39.42;;;;;;;;;;5057195;28;20050;-92
2022/01/25 04:12:54;;;;;;;67.93;37.78;;;;;;;;;;5074094;28;20048;-92
2022/01/25 04:15:21;;;;;;;68.57;38.58;;;;;;;;;;5107441;28;20043;-92
2022/01/25 04:17:55;;;;;;;70.00;39.92;;;;;;;;;;5090050;28;20515;-91
2022/01/25 04:20:34;;;;;;;71.32;39.53;;;;;;;;;;5073340;28;20044;-91
2022/01/25 04:25:45;;;;;;;71.35;38.97;;;;;;;;;;5072897;28;20072;-90
2022/01/25 04:28:11;;;;;;;70.75;40.03;;;;;;;;;;5108688;28;20081;-93
2022/01/25 04:30:37;;;;;;;72.28;40.45;;;;;;;;;;5076344;28;20101;-93
2022/01/25 04:33:16;;;;;;;72.00;38.83;;;;;;;;;;5090986;28;20036;-92
2022/01/25 04:35:56;;;;;;;70.40;39.75;;;;;;;;;;5073873;28;20047;-92
2022/01/25 04:49:26;;;;;;;;;;;;;;;;;;5108777;28;20047;-93
2022/01/25 05:02:19;;;;;;;73.03;39.13;;;;;;;;;;5107616;28;20345;-92
2022/01/25 05:04:52;;;;;;;69.75;39.13;;;;;;;;;;5090251;28;20062;-92
2022/01/25 05:07:46;;;;;;;72.90;38.55;;;;;;;;;;5089754;28;20126;-91
2022/01/25 05:10:12;;;;;;;72.60;39.08;;;;;;;;;;5056662;28;20043;-93
2022/01/25 05:12:50;;;;;;;70.53;38.72;;;;;;;;;;5056840;28;20443;-93
2022/01/25 05:15:25;;;;;;;70.43;39.10;;;;;;;;;;5056440;28;20419;-92
2022/01/25 05:18:13;;;;;;;75.22;40.20;;;;;;;;;;5069329;28;20037;-92
2022/01/25 05:23:24;;;;;;;69.75;38.83;;;;;;;;;;5052604;28;20052;-91
2022/01/25 05:25:50;;;;;;;71.50;37.63;;;;;;;;;;5053104;28;20488;-92
2022/01/25 05:28:17;;;;;;;64.63;37.92;;;;;;;;;;5052716;28;20123;-91
2022/01/25 05:30:43;;;;;;;70.18;38.65;;;;;;;;;;5051627;28;20037;-92
2022/01/25 05:33:09;;;;;;;73.07;39.28;;;;;;;;;;5052424;28;20051;-92
2022/01/25 05:35:35;;;;;;;67.25;37.67;;;;;;;;;;5068875;28;20050;-92
2022/01/25 05:38:02;;;;;;;71.05;37.85;;;;;;;;;;5068887;28;20040;-92
2022/01/25 05:45:57;;;;;;;68.40;36.05;;;;;;;;;;5085696;28;20178;-92
2022/01/25 05:48:23;;;;;;;;;;;;;;;;;;5068800;28;20119;-92
2022/01/25 05:50:50;;;;;;;71.30;38.55;;;;;;;;;;5068409;28;19978;-92
2022/01/25 05:53:16;;;;;;;65.57;35.88;;;;;;;;;;5051723;28;20087;-92
2022/01/25 05:55:42;;;;;;;72.38;38.15;;;;;;;;;;5051503;28;20089;-92
2022/01/25 05:58:08;;;;;;;67.60;38.50;;;;;;;;;;5068326;28;20147;-92
2022/01/25 06:00:34;;;;;;;67.90;39.97;;;;;;;;;;5031644;28;20048;-92
2022/01/25 06:03:03;;;;;;;68.07;37.58;;;;;;;;;;5065377;28;20037;-92
2022/01/25 06:05:29;;;;;;;69.88;38.72;;;;;;;;;;5048195;28;20091;-92
2022/01/25 06:07:55;;;;;;;71.78;39.28;;;;;;;;;;5031901;28;20047;-91
2022/01/25 06:10:22;;;;;;;71.82;40.13;;;;;;;;;;5077248;28;20044;-92
2022/01/25 06:12:48;;;;;;;70.30;38.97;;;;;;;;;;5055615;28;20041;-91
2022/01/25 06:15:14;;;;;;;71.03;39.15;;;;;;;;;;5019385;28;20447;-92
2022/01/25 06:17:41;;;;;;;70.45;37.58;;;;;;;;;;5080108;28;20056;-92
2022/01/25 06:20:08;;;;;;;72.68;38.13;;;;;;;;;;5085565;28;20032;-93
2022/01/25 06:22:34;;;;;;;72.38;38.78;;;;;;;;;;5051059;28;20046;-92
2022/01/25 06:25:00;;;;;;;64.40;37.00;;;;;;;;;;5102238;28;20072;-92
2022/01/25 06:27:27;;;;;;;70.70;38.30;;;;;;;;;;5092614;28;20047;-93
2022/01/25 06:29:53;;;;;;;64.90;36.67;;;;;;;;;;5094396;28;20047;-92
2022/01/25 06:32:20;;;;;;;76.93;39.33;;;;;;;;;;5035092;28;20040;-92
2022/01/25 06:34:47;;;;;;;69.65;38.03;;;;;;;;;;5054298;28;20044;-93
2022/01/25 06:37:13;;;;;;;73.72;39.38;;;;;;;;;;5064517;28;20036;-92
2022/01/25 06:39:40;;;;;;;73.93;40.45;;;;;;;;;;5053529;28;20046;-93
2022/01/25 06:42:06;;;;;;;67.80;40.30;;;;;;;;;;5054575;28;20086;-92
2022/01/25 06:44:36;;;;;;;69.38;39.15;;;;;;;;;;5032736;28;20353;-93
2022/01/25 06:47:02;;;;;;;70.68;39.33;;;;;;;;;;5039561;28;20047;-94
2022/01/25 06:49:28;;;;;;;66.40;38.20;;;;;;;;;;5050529;28;20566;-92
2022/01/25 06:51:54;;;;;;;69.15;37.38;;;;;;;;;;5087821;28;20537;-91
2022/01/25 06:54:21;;;;;;;68.38;38.15;;;;;;;;;;5039822;28;20029;-90
2022/01/25 06:56:47;;;;;;;69.30;38.58;;;;;;;;;;5084933;28;20043;-90
2022/01/25 06:59:25;;;;;;;66.55;37.65;;;;;;;;;;5080252;28;20036;-90
2022/01/25 07:01:51;;;;;;;70.00;37.92;;;;;;;;;;5079060;28;20067;-92
2022/01/25 07:04:18;;;;;;;76.35;41.20;;;;;;;;;;5084714;28;20032;-91
2022/01/25 07:06:44;;;;;;;72.05;38.92;;;;;;;;;;5083315;28;20124;-92
2022/01/25 07:09:10;;;;;;;75.47;38.72;;;;;;;;;;5092716;28;20575;-93
2022/01/25 07:11:36;;;;;;;70.75;39.70;;;;;;;;;;5080375;28;20039;-90
2022/01/25 07:14:02;;;;;;;72.88;37.28;;;;;;;;;;5079636;28;20067;-92
2022/01/25 07:16:29;;;;;;;74.45;37.95;;;;;;;;;;5051478;28;20052;-91
2022/01/25 07:18:55;;;;;;;71.10;39.17;;;;;;;;;;5053012;28;20045;-91
2022/01/25 07:21:21;;;;;;;68.80;38.60;;;;;;;;;;5084428;28;20043;-91
2022/01/25 07:23:47;;;;;;;69.35;37.85;;;;;;;;;;5090849;28;20078;-90
2022/01/25 07:26:14;;;;;;;71.88;40.25;;;;;;;;;;5090450;28;20490;-90
2022/01/25 07:28:40;;;;;;;65.55;36.70;;;;;;;;;;5107490;28;20044;-90
2022/01/25 07:31:06;;;;;;;75.88;40.40;;;;;;;;;;5073630;28;20071;-90
2022/01/25 07:33:32;;;;;;;75.15;39.65;;;;;;;;;;5107223;28;20036;-90
2022/01/25 07:35:58;;;;;;;71.63;39.50;;;;;;;;;;5056889;28;20094;-90
2022/01/25 07:38:24;;;;;;;71.20;38.40;;;;;;;;;;5090263;28;20495;-90
2022/01/25 07:40:51;;;;;;;69.28;36.63;;;;;;;;;;5107484;28;20032;-90
2022/01/25 07:43:23;;;;;;;75.80;39.72;;;;;;;;;;5090252;28;20407;-89
2022/01/25 07:45:52;;;;;;;69.57;38.35;;;;;;;;;;5073024;28;20119;-90
2022/01/25 07:48:19;;;;;;;71.07;37.53;;;;;;;;;;5107036;28;20040;-89
2022/01/25 07:50:45;;;;;;;68.53;37.47;;;;;;;;;;5072807;28;20032;-91
2022/01/25 07:53:12;;;;;;;66.07;35.65;;;;;;;;;;5106638;28;20392;-92
2022/01/25 07:55:38;;;;;;;67.30;36.58;;;;;;;;;;5107671;28;20032;-92
2022/01/25 07:58:05;;;;;;;69.93;39.55;;;;;;;;;;5073458;28;20411;-91
2022/01/25 08:00:31;;;;;;;75.07;38.22;;;;;;;;;;5107628;28;20518;-92
2022/01/25 08:02:57;;;;;;;71.80;40.13;;;;;;;;;;5056568;28;20119;-90
2022/01/25 08:05:25;;;;;;;71.90;37.05;;;;;;;;;;5073474;28;20475;-91
2022/01/25 08:07:52;;;;;;;75.40;40.10;;;;;;;;;;5072991;28;20127;-91
2022/01/25 08:10:18;;;;;;;75.05;39.47;;;;;;;;;;5106962;28;20040;-90
2022/01/25 08:12:44;;;;;;;75.20;39.45;;;;;;;;;;5056177;28;20051;-90
2022/01/25 08:15:12;;;;;;;76.10;38.63;;;;;;;;;;5089337;28;20105;-90
2022/01/25 08:17:38;;;;;;;68.85;37.97;;;;;;;;;;5072310;28;20048;-91
2022/01/25 08:20:05;;;;;;;71.65;39.10;;;;;;;;;;5072848;28;20044;-90
2022/01/25 08:22:33;;;;;;;72.82;38.78;;;;;;;;;;5073136;28;20036;-91
2022/01/25 08:24:59;;;;;;;70.03;37.67;;;;;;;;;;5074266;28;20040;-91
2022/01/25 08:27:26;;;;;;;71.90;37.35;;;;;;;;;;5076215;28;20372;-93
2022/01/25 08:29:52;;;;;;;66.22;37.72;;;;;;;;;;5092118;28;20066;-93
2022/01/25 08:32:19;;;;;;;70.47;39.05;;;;;;;;;;5074443;28;20051;-93
2022/01/25 08:34:45;;;;;;;75.43;40.15;;;;;;;;;;5058531;28;20047;-93
2022/01/25 08:37:11;;;;;;;69.15;37.47;;;;;;;;;;5090780;28;20404;-91
2022/01/25 08:39:37;;;;;;;71.53;39.03;;;;;;;;;;5072452;28;20099;-91
2022/01/25 08:42:04;;;;;;;76.32;38.75;;;;;;;;;;5082092;28;20119;-91
2022/01/25 08:44:31;;;;;;;68.53;36.83;;;;;;;;;;5071625;28;20127;-93
2022/01/25 08:46:57;;;;;;;67.50;36.92;;;;;;;;;;5075316;28;20075;-92
2022/01/25 08:49:24;;;;;;;73.93;39.55;;;;;;;;;;5106824;28;20048;-92
2022/01/25 08:51:50;;;;;;;72.97;37.50;;;;;;;;;;5056908;28;20062;-91
2022/01/25 08:54:16;;;;;;;71.00;38.15;;;;;;;;;;5072611;28;20039;-90
2022/01/25 08:56:43;;;;;;;71.97;38.67;;;;;;;;;;5088730;28;20306;-90
2022/01/25 08:59:10;;;;;;;78.13;40.13;;;;;;;;;;5055119;28;20118;-91
2022/01/25 09:01:36;;;;;;;70.15;37.65;;;;;;;;;;5089141;28;20166;-92
2022/01/25 09:04:02;;;;;;;69.22;39.20;;;;;;;;;;5055605;28;20173;-91
2022/01/25 09:06:29;;;;;;;74.15;39.28;;;;;;;;;;5088534;28;20040;-92
2022/01/25 09:09:03;;;;;;;69.93;38.90;;;;;;;;;;5057046;28;20073;-91
2022/01/25 09:11:29;;;;;;;75.68;39.60;;;;;;;;;;5105951;28;20402;-91
2022/01/25 09:13:55;;;;;;;69.95;39.60;;;;;;;;;;5089173;28;20199;-92
2022/01/25 09:16:21;;;;;;;69.63;37.65;;;;;;;;;;5071783;28;20503;-92
2022/01/25 09:18:47;;;;;;;72.25;39.38;;;;;;;;;;5072012;28;20044;-91
2022/01/25 09:21:14;;;;;;;73.85;38.53;;;;;;;;;;5072204;28;20040;-91
2022/01/25 09:23:40;;;;;;;73.38;40.67;;;;;;;;;;5106679;28;20072;-92
2022/01/25 09:26:07;;;;;;;73.60;38.42;;;;;;;;;;5107381;28;20089;-92
2022/01/25 09:28:33;;;;;;;74.90;39.42;;;;;;;;;;5073983;28;20036;-92
2022/01/25 09:31:01;;;;;;;72.97;39.00;;;;;;;;;;5107410;28;20082;-93
2022/01/25 09:33:27;;;;;;;73.38;40.45;;;;;;;;;;5106150;28;20055;-92
2022/01/25 09:35:54;;;;;;;75.05;38.97;;;;;;;;;;5106791;28;20055;-92
2022/01/25 09:38:21;;;;;;;74.13;39.95;;;;;;;;;;5089358;28;20032;-92
2022/01/25 09:40:47;;;;;;;72.25;39.13;;;;;;;;;;5089903;28;20043;-92
2022/01/25 09:43:14;;;;;;;79.38;41.13;;;;;;;;;;5089101;28;20123;-92
2022/01/25 09:45:41;;;;;;;76.68;39.00;;;;;;;;;;5056424;28;20115;-92
2022/01/25 09:48:07;;;;;;;69.72;37.95;;;;;;;;;;5072765;28;20165;-92
2022/01/25 09:50:34;;;;;;;78.70;40.75;;;;;;;;;;5107211;28;20117;-92
2022/01/25 09:53:00;;;;;;;85.60;44.55;;;;;;;;;;5072829;28;20048;-92
2022/01/25 09:55:27;;;;;;;75.55;40.58;;;;;;;;;;5106224;28;20036;-92
2022/01/25 09:57:54;;;;;;;78.20;41.50;;;;;;;;;;5071855;28;20044;-92
2022/01/25 10:00:21;;;;;;;80.55;40.97;;;;;;;;;;5088271;28;20067;-92
2022/01/25 10:02:59;;;;;;;79.50;41.35;;;;;;;;;;5055308;28;20071;-92
2022/01/25 10:05:30;;;;;;;73.97;40.40;;;;;;;;;;5090226;28;20040;-92
2022/01/25 10:08:03;;;;;;;79.57;39.55;;;;;;;;;;5072385;28;20050;-92
2022/01/25 10:10:30;;;;;;;82.35;41.95;;;;;;;;;;5072600;28;20044;-91
2022/01/25 10:13:07;;;;;;;80.80;41.70;;;;;;;;;;5088835;28;20122;-91
2022/01/25 10:15:33;;;;;;;83.82;42.53;;;;;;;;;;5105761;28;20595;-90
2022/01/25 10:18:00;;;;;;;75.38;41.20;;;;;;;;;;5070344;28;20414;-90
2022/01/25 10:20:33;;;;;;;81.35;41.67;;;;;;;;;;5087614;28;20043;-90
2022/01/25 10:23:01;;;;;;;76.90;39.90;;;;;;;;;;5070483;28;20109;-91
2022/01/25 10:25:32;;;;;;;80.80;41.50;;;;;;;;;;5088517;28;20128;-91
2022/01/25 10:28:11;;;;;;;80.57;41.25;;;;;;;;;;5072649;28;20066;-92
2022/01/25 10:30:58;;;;;;;80.68;41.75;;;;;;;;;;5072338;28;20047;-91
2022/01/25 10:33:33;;;;;;;73.88;38.42;;;;;;;;;;5071024;28;20047;-90
2022/01/25 10:36:19;;;;;;;79.43;39.60;;;;;;;;;;5088892;28;20119;-92
2022/01/25 10:38:47;;;;;;;76.95;40.47;;;;;;;;;;5072287;28;20127;-92
2022/01/25 10:41:20;;;;;;;74.03;40.53;;;;;;;;;;5072534;28;20040;-92
2022/01/25 10:43:48;;;;;;;81.80;41.37;;;;;;;;;;5072137;28;20082;-91
2022/01/25 10:46:17;;;;;;;79.00;41.65;;;;;;;;;;5071789;28;20283;-92
2022/01/25 10:48:45;;;;;;;81.25;43.05;;;;;;;;;;5071993;28;20087;-91
2022/01/25 10:51:30;;;;;;;74.05;39.60;;;;;;;;;;5071104;28;20048;-91
2022/01/25 10:54:12;;;;;;;82.72;41.67;;;;;;;;;;5071242;28;20483;-91
2022/01/25 10:56:44;;;;;;;72.50;38.63;;;;;;;;;;5039196;28;20097;-92
2022/01/25 10:59:12;;;;;;;76.95;39.35;;;;;;;;;;5088108;28;20036;-92
2022/01/25 11:01:40;;;;;;;79.95;39.17;;;;;;;;;;5088019;28;20028;-91
2022/01/25 11:04:08;;;;;;;74.82;40.05;;;;;;;;;;5071033;28;20071;-91
2022/01/25 11:06:35;;;;;;;75.18;39.15;;;;;;;;;;5088226;28;20109;-91
2022/01/25 11:09:04;;;;;;;78.38;41.05;;;;;;;;;;5087823;28;20086;-91
2022/01/25 11:11:34;;;;;;;82.88;39.80;;;;;;;;;;5070861;28;20044;-92
2022/01/25 11:14:50;;;;;;;86.63;40.13;;;;;;;;;;5071194;28;20044;-92
2022/01/25 11:16:48;;;;;;;74.95;39.15;;;;;;;;;;5061454;28;20057;-91
2022/01/25 11:19:14;;;;;;;77.22;38.85;;;;;;;;;;5064014;28;20059;-91
2022/01/25 11:21:43;;;;;;;78.10;39.63;;;;;;;;;;5072125;28;20036;-91
2022/01/25 11:24:09;;;;;;;79.20;40.30;;;;;;;;;;5066636;28;20036;-91
2022/01/25 11:26:36;;;;;;;77.60;38.55;;;;;;;;;;5093374;28;20071;-91
2022/01/25 11:29:02;;;;;;;73.20;39.35;;;;;;;;;;5093174;28;20038;-91
2022/01/25 11:31:29;;;;;;;70.63;38.08;;;;;;;;;;5042050;28;20400;-91
2022/01/25 11:33:56;;;;;;;75.55;39.95;;;;;;;;;;5041837;28;20123;-91
2022/01/25 11:36:22;;;;;;;78.03;39.72;;;;;;;;;;5099108;28;20040;-91
2022/01/25 11:38:53;;;;;;;73.10;39.95;;;;;;;;;;5049457;28;20032;-91
2022/01/25 11:41:20;;;;;;;66.32;37.03;;;;;;;;;;5041382;28;20040;-89
2022/01/25 11:44:05;;;;;;;73.47;38.50;;;;;;;;;;5073567;28;20040;-90
2022/01/25 11:46:32;;;;;;;76.90;39.75;;;;;;;;;;5079031;28;20042;-90
2022/01/25 11:49:04;;;;;;;70.60;37.92;;;;;;;;;;5068472;28;20051;-91
2022/01/25 11:51:30;;;;;;;68.53;37.42;;;;;;;;;;5073500;28;20043;-91
2022/01/25 11:53:56;;;;;;;71.55;38.15;;;;;;;;;;5066246;28;20400;-90
2022/01/25 11:56:26;;;;;;;72.43;37.08;;;;;;;;;;5098245;28;20044;-89
2022/01/25 11:58:54;;;;;;;72.65;36.75;;;;;;;;;;5091568;28;20505;-91
2022/01/25 12:01:22;;;;;;;66.57;36.28;;;;;;;;;;5056897;28;20388;-91
2022/01/25 12:03:58;;;;;;;69.70;38.17;;;;;;;;;;5073493;28;20040;-90
2022/01/25 12:06:31;;;;;;;72.93;37.30;;;;;;;;;;5061000;28;20036;-90
2022/01/25 12:11:32;;;;;;;68.68;35.78;;;;;;;;;;5107987;28;20055;-91
2022/01/25 12:14:21;;;;;;;66.90;34.60;;;;;;;;;;5073150;28;20104;-91
2022/01/25 12:16:50;;;;;;;73.72;37.97;;;;;;;;;;5085074;28;20108;-92
2022/01/25 12:19:21;;;;;;;69.25;36.47;;;;;;;;;;5068434;28;20501;-92
2022/01/25 12:21:49;;;;;;;73.57;37.60;;;;;;;;;;5080544;28;20035;-90
2022/01/25 12:24:19;;;;;;;71.65;37.38;;;;;;;;;;5078900;28;20044;-93
2022/01/25 12:27:10;;;;;;;74.63;39.33;;;;;;;;;;5071433;28;20035;-90
2022/01/25 12:29:36;;;;;;;71.47;37.30;;;;;;;;;;5064034;28;20295;-91
2022/01/25 12:32:36;;;;;;;73.95;38.63;;;;;;;;;;5055484;28;20114;-90
2022/01/25 12:35:02;;;;;;;74.60;38.58;;;;;;;;;;5032594;28;20105;-89
2022/01/25 12:37:53;;;;;;;73.35;39.70;;;;;;;;;;5055881;28;20043;-89
2022/01/25 12:40:25;;;;;;;75.38;39.25;;;;;;;;;;5092563;28;20406;-91
2022/01/25 12:42:59;;;;;;;78.40;37.55;;;;;;;;;;5054280;28;20078;-90
2022/01/25 12:45:27;;;;;;;72.68;38.10;;;;;;;;;;5062333;28;20483;-90
2022/01/25 12:47:55;;;;;;;73.50;37.33;;;;;;;;;;5055459;28;20047;-91
2022/01/25 12:50:22;;;;;;;76.05;38.85;;;;;;;;;;5056072;28;20227;-92
2022/01/25 12:52:48;;;;;;;74.15;39.72;;;;;;;;;;5053676;28;20075;-91
2022/01/25 12:55:15;;;;;;;72.22;38.55;;;;;;;;;;5109992;27;20586;-88
2022/01/25 12:57:51;;;;;;;73.35;39.70;;;;;;;;;;5052304;28;20415;-91
2022/01/25 13:00:18;;;;;;;77.50;40.22;;;;;;;;;;5070694;28;20043;-90
2022/01/25 13:02:47;;;;;;;72.97;39.38;;;;;;;;;;5062280;28;20422;-92
2022/01/25 13:05:16;;;;;;;79.10;38.90;;;;;;;;;;5055291;28;20133;-91
2022/01/25 13:07:42;;;;;;;69.47;37.92;;;;;;;;;;5096894;27;20040;-91
2022/01/25 13:10:11;;;;;;;77.68;39.60;;;;;;;;;;5084149;28;20391;-93
2022/01/25 13:12:54;;;;;;;75.65;38.20;;;;;;;;;;5069070;28;20445;-90
2022/01/25 13:15:53;;;;;;;72.25;38.08;;;;;;;;;;5058921;28;20078;-92
2022/01/25 13:18:19;;;;;;;76.28;39.13;;;;;;;;;;5099561;27;20040;-91
2022/01/25 13:20:48;;;;;;;70.10;37.50;;;;;;;;;;5073257;28;20032;-91
2022/01/25 13:23:14;;;;;;;74.60;38.88;;;;;;;;;;5098033;27;20577;-91
2022/01/25 13:26:25;;;;;;;73.53;38.88;;;;;;;;;;5048042;28;20032;-90
2022/01/25 13:31:00;;;;;;;79.63;40.83;;;;;;;;;;5081539;28;20511;-89
2022/01/25 13:33:28;;;;;;;78.80;40.50;;;;;;;;;;5108534;28;20414;-90
2022/01/25 13:35:56;;;;;;;81.47;41.20;;;;;;;;;;5105605;28;20048;-90
2022/01/25 13:38:26;;;;;;;73.63;38.80;;;;;;;;;;5075691;28;20052;-91
2022/01/25 13:41:02;;;;;;;79.90;42.83;;;;;;;;;;5088607;28;20040;-90
2022/01/25 13:46:14;;;;;;;77.07;40.33;;;;;;;;;;5107945;27;20411;-89
2022/01/25 13:48:41;;;;;;;84.07;42.28;;;;;;;;;;5085445;28;20122;-91
2022/01/25 13:51:08;;;;;;;86.57;43.42;;;;;;;;;;5074722;28;20078;-90
2022/01/25 13:53:36;;;;;;;78.97;42.25;;;;;;;;;;5086964;28;20051;-89
2022/01/25 13:56:03;;;;;;;77.78;42.13;;;;;;;;;;5059389;28;20032;-89
2022/01/25 13:58:31;;;;;;;83.15;43.10;;;;;;;;;;5105267;28;20032;-91
2022/01/25 14:00:58;;;;;;;77.10;41.47;;;;;;;;;;5071389;28;20479;-92
2022/01/25 14:03:29;;;;;;;78.82;41.90;;;;;;;;;;5088842;28;20089;-91
2022/01/25 14:05:55;;;;;;;81.82;42.35;;;;;;;;;;5055658;28;20036;-91
2022/01/25 14:08:41;;;;;;;81.35;43.33;;;;;;;;;;5105794;28;20083;-91
2022/01/25 14:21:39;;;;;;;81.00;42.58;;;;;;;;;;5086152;28;20047;-91
2022/01/25 14:23:19;;;;;;;77.85;41.75;;;;;;;;;;5082233;28;20032;-91
2022/01/25 14:25:42;;;;;;;80.43;42.38;;;;;;;;;;5070775;28;20040;-91
2022/01/25 14:28:12;;;;;;;85.20;42.55;;;;;;;;;;5082541;28;20492;-91
2022/01/25 14:30:39;;;;;;;79.88;42.65;;;;;;;;;;5067922;28;20036;-92
2022/01/25 14:33:11;;;;;;;80.85;41.45;;;;;;;;;;5086948;28;20093;-91
2022/01/25 14:35:45;;;;;;;82.07;40.58;;;;;;;;;;5076947;28;20047;-90
2022/01/25 14:38:15;;;;;;;83.32;43.15;;;;;;;;;;5077744;28;20093;-91
2022/01/25 14:40:41;;;;;;;89.22;43.92;;;;;;;;;;5063983;28;20039;-90
2022/01/25 14:43:09;;;;;;;79.55;43.08;;;;;;;;;;5081318;28;20077;-92
2022/01/25 14:45:35;;;;;;;90.53;43.75;;;;;;;;;;5079193;28;20067;-91
2022/01/25 14:48:02;;;;;;;90.40;44.20;;;;;;;;;;5092262;28;20054;-91
2022/01/25 14:50:33;;;;;;;79.93;41.08;;;;;;;;;;5060454;28;20040;-91
2022/01/25 14:53:10;;;;;;;80.32;41.90;;;;;;;;;;5061694;28;20047;-92
2022/01/25 14:55:38;;;;;;;82.75;42.80;;;;;;;;;;5090548;28;20039;-91
2022/01/25 14:58:23;;;;;;;81.25;41.67;;;;;;;;;;5078817;28;20072;-91
2022/01/25 15:00:51;;;;;;;81.30;41.55;;;;;;;;;;5108315;28;20040;-91
2022/01/25 15:03:17;;;;;;;80.82;41.72;;;;;;;;;;5080679;28;20093;-91
2022/01/25 15:05:45;;;;;;;90.03;44.20;;;;;;;;;;5076219;28;20028;-91
2022/01/25 15:08:12;;;;;;;85.43;41.75;;;;;;;;;;5056650;28;20040;-91
2022/01/25 15:10:43;;;;;;;89.38;42.15;;;;;;;;;;5062566;28;20047;-89
2022/01/25 15:13:10;;;;;;;79.80;40.20;;;;;;;;;;5105431;27;20058;-93
2022/01/25 15:15:54;;;;;;;91.20;41.78;;;;;;;;;;5078900;28;20069;-91
2022/01/25 15:18:35;;;;;;;83.60;42.92;;;;;;;;;;5071983;28;20448;-92
2022/01/25 15:21:02;;;;;;;85.80;44.17;;;;;;;;;;5074702;28;20040;-92
2022/01/25 15:23:32;;;;;;;80.45;42.42;;;;;;;;;;5074354;28;20067;-91
2022/01/25 15:26:01;;;;;;;86.03;41.47;;;;;;;;;;5088226;28;20407;-92
2022/01/25 15:28:45;;;;;;;81.95;40.75;;;;;;;;;;5056087;28;20438;-92
2022/01/25 15:31:19;;;;;;;81.88;42.28;;;;;;;;;;5069354;28;20326;-90
2022/01/25 15:33:46;;;;;;;87.07;41.67;;;;;;;;;;5073992;28;20123;-91
2022/01/25 15:36:15;;;;;;;86.38;43.25;;;;;;;;;;5058362;28;20174;-91
2022/01/25 15:38:41;;;;;;;84.70;43.08;;;;;;;;;;5108128;28;20264;-91
2022/01/25 15:41:09;;;;;;;83.10;42.83;;;;;;;;;;5057144;28;20043;-91
2022/01/25 15:43:41;;;;;;;91.93;45.17;;;;;;;;;;5074021;28;20036;-91
2022/01/25 15:46:08;;;;;;;82.38;42.80;;;;;;;;;;5076744;28;20174;-92
2022/01/25 15:48:35;;;;;;;85.57;44.20;;;;;;;;;;5058332;28;20032;-92
2022/01/25 15:51:01;;;;;;;91.75;43.97;;;;;;;;;;5057993;28;20377;-91
2022/01/25 15:53:30;;;;;;;85.53;41.38;;;;;;;;;;5073586;28;20040;-90
2022/01/25 15:55:57;;;;;;;88.30;42.83;;;;;;;;;;5054552;28;20042;-92
2022/01/25 15:58:23;;;;;;;80.85;41.22;;;;;;;;;;5088449;28;20040;-91
2022/01/25 16:01:10;;;;;;;89.82;43.03;;;;;;;;;;5089833;28;20539;-93
2022/01/25 16:03:36;;;;;;;94.07;45.45;;;;;;;;;;5080365;28;20032;-92
2022/01/25 16:06:03;;;;;;;85.55;40.88;;;;;;;;;;5075056;28;20118;-93
2022/01/25 16:08:29;;;;;;;89.05;42.03;;;;;;;;;;5109823;28;20032;-93
2022/01/25 16:10:58;;;;;;;90.88;42.90;;;;;;;;;;5092631;28;20067;-93
2022/01/25 16:13:25;;;;;;;92.57;44.47;;;;;;;;;;5108749;28;20499;-92
2022/01/25 16:15:51;;;;;;;95.55;44.45;;;;;;;;;;5074657;28;20097;-91
2022/01/25 16:18:17;;;;;;;79.30;39.92;;;;;;;;;;5091566;28;20084;-92
2022/01/25 16:20:43;;;;;;;79.88;39.80;;;;;;;;;;5091184;28;20438;-92
2022/01/25 16:23:10;;;;;;;89.32;45.17;;;;;;;;;;5069400;28;20090;-92
2022/01/25 16:25:37;;;;;;;96.65;45.67;;;;;;;;;;5055092;28;20040;-92
2022/01/25 16:28:04;;;;;;;90.45;45.22;;;;;;;;;;5085434;28;20074;-90
2022/01/25 16:30:31;;;;;;;92.07;45.85;;;;;;;;;;5066461;28;20033;-90
2022/01/25 16:32:57;;;;;;;87.95;45.08;;;;;;;;;;5051442;28;20396;-91
2022/01/25 16:35:24;;;;;;;90.75;45.05;;;;;;;;;;5068995;28;20051;-91